Time;durP1;ratioP1;P1;durP2;ratioP2;P2;SDS_P1;SDS_P2;PMS_P1;PMS_P2;Temp;Humidity;BMP_temperature;BMP_pressure;BME280_temperature;BME280_humidity;BME280_pressure;Samples;Min_cycle;Max_cycle;Signal;HPM_P1;HPM_P2
2022/03/01 00:00:59;;;;;;;22.08;9.10;;;-0.50;99.90;;;;;;5076941;28;20059;-71
2022/03/01 00:03:26;;;;;;;28.58;9.88;;;-0.40;99.90;;;;;;5075129;28;20427;-71
2022/03/01 00:05:54;;;;;;;28.88;10.63;;;-0.30;99.90;;;;;;5058628;28;20028;-71
2022/03/01 00:08:21;;;;;;;22.48;9.35;;;-0.10;99.90;;;;;;5058365;28;20406;-71
2022/03/01 00:10:48;;;;;;;18.67;8.55;;;0.00;99.90;;;;;;5076678;28;20082;-71
2022/03/01 00:13:15;;;;;;;26.83;10.07;;;0.00;99.90;;;;;;5076128;28;20021;-71
2022/03/01 00:15:43;;;;;;;25.30;9.77;;;0.10;99.90;;;;;;5058472;28;20064;-71
2022/03/01 00:18:11;;;;;;;25.95;10.38;;;0.20;99.90;;;;;;5058726;28;20021;-72
2022/03/01 00:20:38;;;;;;;26.33;9.15;;;0.20;99.90;;;;;;5058303;28;20499;-72
2022/03/01 00:23:07;;;;;;;21.38;9.10;;;0.20;99.90;;;;;;5076101;28;20351;-72
2022/03/01 00:25:35;;;;;;;20.52;8.35;;;0.20;99.90;;;;;;5055983;28;20448;-71
2022/03/01 00:28:03;;;;;;;23.33;8.95;;;0.20;99.90;;;;;;5057378;28;20036;-71
2022/03/01 00:30:30;;;;;;;23.15;8.52;;;0.20;99.90;;;;;;5056786;28;20516;-71
2022/03/01 00:32:57;;;;;;;27.95;9.55;;;0.20;99.90;;;;;;5056811;28;20412;-71
2022/03/01 00:35:24;;;;;;;28.48;9.65;;;0.20;99.90;;;;;;5057191;28;20052;-71
2022/03/01 00:37:52;;;;;;;27.92;10.15;;;0.20;99.90;;;;;;5056701;28;20021;-71
2022/03/01 00:40:19;;;;;;;20.27;8.73;;;0.20;99.90;;;;;;5056766;28;20021;-71
2022/03/01 00:42:47;;;;;;;21.40;9.25;;;0.20;99.90;;;;;;5055714;28;20025;-71
2022/03/01 00:45:14;;;;;;;23.33;9.07;;;0.20;99.90;;;;;;5054674;28;20025;-71
2022/03/01 00:47:41;;;;;;;25.23;9.43;;;0.20;99.90;;;;;;5056467;28;20029;-71
2022/03/01 00:50:09;;;;;;;28.65;9.85;;;0.20;99.90;;;;;;5056249;28;20040;-71
2022/03/01 00:52:37;;;;;;;28.33;9.93;;;0.20;99.90;;;;;;5060005;28;20025;-71
2022/03/01 00:55:05;;;;;;;24.77;10.18;;;0.20;99.90;;;;;;5059289;28;20136;-72
2022/03/01 00:57:32;;;;;;;28.00;10.40;;;0.20;99.90;;;;;;5058376;28;20029;-71
2022/03/01 00:59:59;;;;;;;27.00;10.07;;;0.20;99.90;;;;;;5059758;28;20028;-71
2022/03/01 01:02:28;;;;;;;22.42;9.15;;;0.10;99.90;;;;;;5059752;28;20017;-71
2022/03/01 01:04:55;;;;;;;28.17;10.23;;;0.10;99.90;;;;;;5059110;28;20025;-71
2022/03/01 01:07:22;;;;;;;25.60;9.25;;;0.00;99.90;;;;;;5042237;28;20021;-71
2022/03/01 01:09:49;;;;;;;29.08;10.45;;;0.00;99.90;;;;;;5060035;28;20021;-71
2022/03/01 01:12:16;;;;;;;22.55;9.35;;;0.00;99.90;;;;;;5059793;28;20028;-72
2022/03/01 01:14:44;;;;;;;22.58;8.60;;;0.00;99.90;;;;;;5058872;28;20075;-71
2022/03/01 01:17:12;;;;;;;22.23;7.75;;;0.00;99.90;;;;;;5060053;28;20017;-71
2022/03/01 01:19:39;;;;;;;19.40;9.82;;;0.00;99.90;;;;;;5060489;28;20436;-71
2022/03/01 01:24:52;;;;;;;22.58;8.98;;;0.10;99.90;;;;;;5064072;28;20048;-71
2022/03/01 01:27:19;;;;;;;21.75;9.27;;;0.20;99.90;;;;;;5078966;28;20105;-71
2022/03/01 01:29:46;;;;;;;29.40;10.65;;;0.20;99.90;;;;;;5060989;28;20116;-71
2022/03/01 01:32:13;;;;;;;21.77;8.82;;;0.30;99.90;;;;;;5078981;28;20428;-72
2022/03/01 01:34:41;;;;;;;25.35;9.05;;;0.30;99.90;;;;;;5060915;28;20024;-71
2022/03/01 01:37:08;;;;;;;20.75;8.63;;;0.30;99.90;;;;;;5079242;28;20028;-71
2022/03/01 01:39:35;;;;;;;22.20;9.15;;;0.30;99.90;;;;;;5079096;28;20019;-71
2022/03/01 01:42:03;;;;;;;24.23;8.60;;;0.30;99.90;;;;;;5078839;28;20110;-71
2022/03/01 01:44:31;;;;;;;23.00;9.40;;;0.30;99.90;;;;;;5078438;28;20019;-71
2022/03/01 01:46:58;;;;;;;20.52;8.35;;;0.30;99.90;;;;;;5060804;28;20029;-72
2022/03/01 01:49:26;;;;;;;26.75;8.85;;;0.30;99.90;;;;;;5079592;28;20025;-71
2022/03/01 01:51:54;;;;;;;22.75;8.50;;;0.40;99.90;;;;;;5079495;28;20020;-71
2022/03/01 01:54:22;;;;;;;21.80;8.15;;;0.40;99.90;;;;;;5079183;28;20025;-71
2022/03/01 01:56:50;;;;;;;17.35;7.60;;;0.40;99.90;;;;;;5079160;28;20056;-71
2022/03/01 01:59:17;;;;;;;24.10;8.85;;;0.40;99.90;;;;;;5079017;28;20032;-71
2022/03/01 02:01:46;;;;;;;27.45;9.35;;;0.50;99.90;;;;;;5078511;28;20016;-71
2022/03/01 02:04:13;;;;;;;19.95;9.23;;;0.50;99.90;;;;;;5060963;28;20424;-71
2022/03/01 02:06:54;;;;;;;26.05;9.82;;;0.50;99.90;;;;;;5061370;28;20028;-71
2022/03/01 02:09:21;;;;;;;19.52;7.70;;;0.50;99.90;;;;;;5060366;28;20335;-72
2022/03/01 02:11:49;;;;;;;16.80;7.43;;;0.50;99.90;;;;;;5078245;28;20413;-71
2022/03/01 02:14:17;;;;;;;14.57;6.53;;;0.50;99.90;;;;;;5060118;28;20024;-72
2022/03/01 02:16:44;;;;;;;17.38;8.18;;;0.60;99.90;;;;;;5078476;28;20036;-71
2022/03/01 02:19:15;;;;;;;23.08;10.63;;;0.60;99.90;;;;;;5059942;28;20115;-72
2022/03/01 02:21:50;;;;;;;29.85;10.48;;;0.60;99.90;;;;;;5078301;28;20420;-72
2022/03/01 02:24:19;;;;;;;18.85;7.90;;;0.60;99.90;;;;;;5077703;28;20032;-71
2022/03/01 02:26:46;;;;;;;20.65;7.95;;;0.60;99.90;;;;;;5057619;28;20094;-71
2022/03/01 02:29:13;;;;;;;24.67;8.75;;;0.50;99.90;;;;;;5057544;28;20028;-71
2022/03/01 02:31:41;;;;;;;20.05;8.57;;;0.50;99.90;;;;;;5058097;28;20057;-71
2022/03/01 02:34:08;;;;;;;26.98;9.20;;;0.40;99.90;;;;;;5058401;28;20021;-71
2022/03/01 02:36:35;;;;;;;21.30;8.18;;;0.40;99.90;;;;;;5058825;28;20021;-71
2022/03/01 02:39:03;;;;;;;19.67;8.63;;;0.30;99.90;;;;;;5040597;28;20021;-71
2022/03/01 02:41:31;;;;;;;21.92;7.95;;;0.30;99.90;;;;;;5058441;28;20024;-72
2022/03/01 02:43:58;;;;;;;23.35;8.95;;;0.30;99.90;;;;;;5058186;28;20021;-71
2022/03/01 02:46:26;;;;;;;22.83;8.73;;;0.20;99.90;;;;;;5040431;28;20048;-72
2022/03/01 02:48:53;;;;;;;24.17;9.20;;;0.20;99.90;;;;;;5058148;28;20025;-71
2022/03/01 02:51:20;;;;;;;22.33;8.18;;;0.20;99.90;;;;;;5057486;28;20021;-71
2022/03/01 02:53:48;;;;;;;21.95;8.88;;;0.20;99.90;;;;;;5057672;28;20413;-71
2022/03/01 02:56:15;;;;;;;22.02;8.98;;;0.20;99.90;;;;;;5039510;28;20029;-71
2022/03/01 02:58:42;;;;;;;25.08;9.73;;;0.20;99.90;;;;;;5056899;28;20028;-72
2022/03/01 03:01:10;;;;;;;20.70;8.60;;;0.20;99.90;;;;;;5057663;28;20407;-72
2022/03/01 03:03:37;;;;;;;24.40;8.80;;;0.20;99.90;;;;;;5039448;28;20325;-71
2022/03/01 03:06:05;;;;;;;20.10;7.90;;;0.20;99.90;;;;;;5056898;28;20031;-72
2022/03/01 03:08:33;;;;;;;22.92;7.82;;;0.20;99.90;;;;;;5039156;28;20025;-72
2022/03/01 03:11:02;;;;;;;24.20;9.40;;;0.20;99.90;;;;;;5057471;28;20025;-71
2022/03/01 03:13:29;;;;;;;22.48;8.45;;;0.20;99.90;;;;;;5057021;28;20029;-71
2022/03/01 03:15:56;;;;;;;22.58;8.50;;;0.20;99.90;;;;;;5039863;28;20021;-71
2022/03/01 03:18:24;;;;;;;26.55;9.93;;;0.20;99.90;;;;;;5057802;28;20143;-71
2022/03/01 03:20:52;;;;;;;28.02;9.85;;;0.20;99.90;;;;;;5058268;28;20032;-71
2022/03/01 03:23:20;;;;;;;22.48;9.32;;;0.20;99.90;;;;;;5057391;28;20025;-71
2022/03/01 03:25:47;;;;;;;21.77;8.75;;;0.20;99.90;;;;;;5069369;28;20048;-72
2022/03/01 03:28:14;;;;;;;24.88;9.07;;;0.20;99.90;;;;;;5077444;28;20025;-71
2022/03/01 03:30:41;;;;;;;26.50;9.73;;;0.10;99.90;;;;;;5077924;28;20020;-71
2022/03/01 03:33:09;;;;;;;21.77;8.40;;;0.20;99.90;;;;;;5042976;28;20055;-71
2022/03/01 03:35:37;;;;;;;21.60;8.38;;;0.20;99.90;;;;;;5076429;28;20029;-71
2022/03/01 03:38:04;;;;;;;25.63;9.77;;;0.10;99.90;;;;;;5059479;28;20422;-71
2022/03/01 03:40:31;;;;;;;24.17;10.85;;;0.10;99.90;;;;;;5076669;28;20297;-72
2022/03/01 03:42:58;;;;;;;23.98;8.75;;;0.10;99.90;;;;;;5058820;28;20024;-71
2022/03/01 03:45:26;;;;;;;23.30;9.43;;;0.00;99.90;;;;;;5076888;28;20059;-72
2022/03/01 03:47:53;;;;;;;23.10;8.80;;;0.00;99.90;;;;;;5058607;28;20070;-71
2022/03/01 03:50:20;;;;;;;24.25;8.90;;;0.00;99.90;;;;;;5076844;28;20021;-71
2022/03/01 03:52:47;;;;;;;23.40;8.82;;;-0.10;99.90;;;;;;5076282;28;20324;-71
2022/03/01 03:55:14;;;;;;;25.00;9.35;;;-0.10;99.90;;;;;;5058487;28;20025;-71
2022/03/01 03:57:42;;;;;;;24.30;8.73;;;-0.10;99.90;;;;;;5077165;28;20108;-71
2022/03/01 04:00:16;;;;;;;19.17;8.13;;;-0.20;99.90;;;;;;5077462;28;20020;-71
2022/03/01 04:02:51;;;;;;;23.20;9.55;;;-0.20;99.90;;;;;;5077470;28;20016;-71
2022/03/01 04:05:19;;;;;;;24.25;9.85;;;-0.20;99.90;;;;;;5077050;28;20111;-71
2022/03/01 04:07:48;;;;;;;28.80;10.07;;;-0.20;99.90;;;;;;5077186;28;20104;-71
2022/03/01 04:10:16;;;;;;;25.17;9.93;;;-0.30;99.90;;;;;;5077066;28;20322;-71
2022/03/01 04:12:43;;;;;;;24.85;10.07;;;-0.20;99.90;;;;;;5077133;28;20477;-71
2022/03/01 04:15:11;;;;;;;30.05;10.30;;;-0.30;99.90;;;;;;5059917;28;20095;-71
2022/03/01 04:17:41;;;;;;;24.02;9.70;;;-0.30;99.90;;;;;;5076563;28;20031;-71
2022/03/01 04:20:09;;;;;;;25.90;9.52;;;-0.30;99.90;;;;;;5058325;28;20027;-71
2022/03/01 04:22:36;;;;;;;22.20;9.40;;;-0.40;99.90;;;;;;5058285;28;20047;-71
2022/03/01 04:25:06;;;;;;;24.27;9.02;;;-0.50;99.90;;;;;;5054950;28;20045;-71
2022/03/01 04:27:33;;;;;;;18.70;8.38;;;-0.60;99.90;;;;;;5060673;28;20025;-71
2022/03/01 04:30:00;;;;;;;24.00;9.65;;;-0.60;99.90;;;;;;5059829;28;20021;-71
2022/03/01 04:32:28;;;;;;;28.67;10.73;;;-0.60;99.90;;;;;;5058824;28;20025;-71
2022/03/01 04:34:55;;;;;;;22.90;8.65;;;-0.70;99.90;;;;;;5059047;28;20312;-71
2022/03/01 04:37:22;;;;;;;29.40;8.90;;;-0.70;99.90;;;;;;5058817;28;20111;-71
2022/03/01 04:39:50;;;;;;;26.15;8.52;;;-0.70;99.90;;;;;;5060688;28;20021;-71
2022/03/01 04:42:17;;;;;;;21.30;8.77;;;-0.70;99.90;;;;;;5060519;28;20494;-71
2022/03/01 04:44:44;;;;;;;23.70;10.20;;;-0.80;99.90;;;;;;5059474;28;20029;-71
2022/03/01 04:47:14;;;;;;;22.77;8.57;;;-0.70;99.90;;;;;;5060459;28;20025;-71
2022/03/01 04:49:41;;;;;;;23.83;9.25;;;-0.70;99.90;;;;;;5060372;28;20025;-71
2022/03/01 04:52:08;;;;;;;23.80;9.35;;;-0.80;99.90;;;;;;5060733;28;20121;-71
2022/03/01 04:54:36;;;;;;;26.17;9.38;;;-0.80;99.90;;;;;;5059277;28;20032;-71
2022/03/01 04:57:03;;;;;;;27.83;9.80;;;-0.70;99.90;;;;;;5060708;28;20021;-71
2022/03/01 04:59:30;;;;;;;24.52;10.13;;;-0.70;99.90;;;;;;5059490;28;20021;-71
2022/03/01 05:01:58;;;;;;;24.90;10.52;;;-0.70;99.90;;;;;;5058226;28;20159;-71
2022/03/01 05:04:25;;;;;;;26.67;8.93;;;-0.80;99.90;;;;;;5059090;28;20029;-71
2022/03/01 05:06:53;;;;;;;30.88;9.88;;;-0.80;99.90;;;;;;5059345;28;20032;-71
2022/03/01 05:09:24;;;;;;;30.90;10.05;;;-0.80;99.90;;;;;;5059336;28;20096;-71
2022/03/01 05:11:52;;;;;;;21.50;9.02;;;-0.80;99.90;;;;;;5059651;28;20107;-71
2022/03/01 05:14:19;;;;;;;26.10;12.60;;;-0.90;99.90;;;;;;5059557;28;20063;-71
2022/03/01 05:16:47;;;;;;;24.23;10.43;;;-0.90;99.90;;;;;;5059600;28;20025;-71
2022/03/01 05:19:15;;;;;;;27.05;10.18;;;-0.90;99.90;;;;;;5057798;28;20032;-71
2022/03/01 05:21:42;;;;;;;26.38;10.10;;;-1.00;99.90;;;;;;5058322;28;20092;-71
2022/03/01 05:24:10;;;;;;;25.15;10.18;;;-1.00;99.90;;;;;;5059591;28;20100;-71
2022/03/01 05:26:38;;;;;;;21.02;8.85;;;-0.90;99.90;;;;;;5078127;28;20048;-71
2022/03/01 05:29:07;;;;;;;21.45;9.07;;;-1.00;99.90;;;;;;5079573;28;20025;-71
2022/03/01 05:31:34;;;;;;;19.92;8.70;;;-0.90;99.90;;;;;;5062962;28;20021;-71
2022/03/01 05:34:02;;;;;;;25.10;9.40;;;-0.90;99.90;;;;;;5079585;28;20047;-71
2022/03/01 05:36:29;;;;;;;22.67;8.93;;;-0.90;99.90;;;;;;5078970;28;20032;-71
2022/03/01 05:38:56;;;;;;;30.10;9.25;;;-0.90;99.90;;;;;;5078984;28;20028;-71
2022/03/01 05:41:24;;;;;;;20.98;9.20;;;-0.80;99.90;;;;;;5061303;28;20023;-71
2022/03/01 05:43:51;;;;;;;24.15;9.10;;;-0.80;99.90;;;;;;5079011;28;20118;-70
2022/03/01 05:46:19;;;;;;;27.38;9.93;;;-0.80;99.90;;;;;;5060649;28;20463;-71
2022/03/01 05:48:46;;;;;;;25.23;9.25;;;-0.80;99.90;;;;;;5043994;28;20032;-71
2022/03/01 05:51:14;;;;;;;26.48;11.57;;;-0.80;99.90;;;;;;5078290;28;20028;-70
2022/03/01 05:53:42;;;;;;;24.42;8.35;;;-0.80;99.90;;;;;;5078230;28;20020;-71
2022/03/01 05:56:10;;;;;;;20.23;8.48;;;-0.80;99.90;;;;;;5078538;28;20367;-71
2022/03/01 05:58:37;;;;;;;24.48;8.98;;;-0.80;99.90;;;;;;5060538;28;20023;-71
2022/03/01 06:01:04;;;;;;;19.60;8.70;;;-0.80;99.90;;;;;;5078111;28;20024;-71
2022/03/01 06:03:31;;;;;;;20.70;8.55;;;-0.80;99.90;;;;;;5078384;28;20027;-70
2022/03/01 06:05:59;;;;;;;21.30;8.57;;;-0.80;99.90;;;;;;5078973;28;20029;-71
2022/03/01 06:08:26;;;;;;;29.05;9.25;;;-0.80;99.90;;;;;;5079554;28;20031;-71
2022/03/01 06:10:53;;;;;;;24.27;8.90;;;-0.80;99.90;;;;;;5061215;28;20111;-71
2022/03/01 06:13:21;;;;;;;26.77;8.65;;;-0.80;99.90;;;;;;5078993;28;20078;-70
2022/03/01 06:15:48;;;;;;;26.15;8.48;;;-0.80;99.90;;;;;;5078945;28;20020;-71
2022/03/01 06:18:16;;;;;;;21.35;9.05;;;-0.70;99.90;;;;;;5078976;28;20032;-70
2022/03/01 06:20:44;;;;;;;22.85;9.88;;;-0.80;99.90;;;;;;5078748;28;20150;-71
2022/03/01 06:23:12;;;;;;;24.77;9.15;;;-0.80;99.90;;;;;;5078267;28;20013;-70
2022/03/01 06:25:40;;;;;;;23.83;9.05;;;-0.80;99.90;;;;;;5077616;28;20060;-71
2022/03/01 06:28:08;;;;;;;25.88;9.23;;;-0.80;99.90;;;;;;5077480;28;20099;-72
2022/03/01 06:30:36;;;;;;;18.30;7.85;;;-0.70;99.90;;;;;;5059835;28;20332;-71
2022/03/01 06:33:04;;;;;;;17.45;7.30;;;-0.70;99.90;;;;;;5077507;28;20028;-72
2022/03/01 06:35:32;;;;;;;23.73;8.48;;;-0.70;99.90;;;;;;5077567;28;20423;-72
2022/03/01 06:37:59;;;;;;;24.20;8.80;;;-0.70;99.90;;;;;;5059834;28;20024;-71
2022/03/01 06:40:28;;;;;;;20.35;8.30;;;-0.60;99.90;;;;;;5077389;28;20126;-71
2022/03/01 06:42:56;;;;;;;27.73;8.57;;;-0.60;99.90;;;;;;5077129;28;20366;-73
2022/03/01 06:45:23;;;;;;;19.23;7.65;;;-0.60;99.90;;;;;;5060312;28;20336;-73
2022/03/01 06:47:51;;;;;;;21.25;8.70;;;-0.50;99.90;;;;;;5077921;28;20366;-74
2022/03/01 06:50:18;;;;;;;23.90;9.10;;;-0.50;99.90;;;;;;5078130;28;20020;-78
2022/03/01 06:52:46;;;;;;;21.23;8.20;;;-0.50;99.90;;;;;;5059764;28;20364;-78
2022/03/01 06:55:14;;;;;;;24.88;8.32;;;-0.50;99.90;;;;;;5060208;28;20324;-74
2022/03/01 06:57:42;;;;;;;22.77;8.18;;;-0.40;99.90;;;;;;5078087;28;20066;-75
2022/03/01 07:00:12;;;;;;;18.73;7.43;;;-0.40;99.90;;;;;;5077966;28;20016;-74
2022/03/01 07:02:40;;;;;;;21.00;9.07;;;-0.40;99.90;;;;;;5077928;28;20138;-75
2022/03/01 07:05:13;;;;;;;24.85;8.93;;;-0.40;99.90;;;;;;5077808;28;20016;-77
2022/03/01 07:07:41;;;;;;;19.98;6.72;;;-0.30;99.90;;;;;;5077015;28;20401;-78
2022/03/01 07:10:13;;;;;;;20.52;7.93;;;-0.30;99.90;;;;;;5076880;28;20074;-77
2022/03/01 07:12:42;;;;;;;21.08;8.55;;;-0.20;99.90;;;;;;5077131;28;20337;-77
2022/03/01 07:15:10;;;;;;;20.50;8.20;;;-0.10;99.90;;;;;;5076971;28;20477;-77
2022/03/01 07:17:38;;;;;;;22.92;8.23;;;-0.10;99.90;;;;;;5058961;28;20025;-77
2022/03/01 07:20:07;;;;;;;18.38;6.65;;;-0.10;99.90;;;;;;5076985;28;20031;-77
2022/03/01 07:22:35;;;;;;;19.13;8.02;;;0.00;99.90;;;;;;5076702;28;20016;-76
2022/03/01 07:25:02;;;;;;;22.63;8.30;;;0.00;99.90;;;;;;5076376;28;20451;-71
2022/03/01 07:27:30;;;;;;;18.25;7.57;;;0.10;99.90;;;;;;5058855;28;20434;-71
2022/03/01 07:29:58;;;;;;;18.35;7.40;;;0.20;99.90;;;;;;5077551;28;20024;-71
2022/03/01 07:32:26;;;;;;;22.75;8.45;;;0.20;99.90;;;;;;5043495;28;20020;-71
2022/03/01 07:34:53;;;;;;;25.23;7.93;;;0.20;99.90;;;;;;5059744;28;20025;-72
2022/03/01 07:37:21;;;;;;;18.40;8.20;;;0.30;99.90;;;;;;5059612;28;20029;-71
2022/03/01 07:39:49;;;;;;;19.50;7.80;;;0.30;99.90;;;;;;5059693;28;20162;-71
2022/03/01 07:42:16;;;;;;;19.73;7.72;;;0.30;99.90;;;;;;5077538;28;20409;-69
2022/03/01 07:44:43;;;;;;;18.27;7.78;;;0.40;99.90;;;;;;5060074;28;20059;-71
2022/03/01 07:47:11;;;;;;;20.75;7.47;;;0.50;99.90;;;;;;5059392;28;20032;-70
2022/03/01 07:49:38;;;;;;;19.50;6.90;;;0.50;99.90;;;;;;5076346;28;20020;-70
2022/03/01 07:52:06;;;;;;;17.92;7.07;;;0.60;99.90;;;;;;5076007;28;20043;-72
2022/03/01 07:54:34;;;;;;;21.58;7.57;;;0.70;99.90;;;;;;5058440;28;20091;-72
2022/03/01 07:57:01;;;;;;;18.73;7.10;;;0.80;99.90;;;;;;5076867;28;20397;-71
2022/03/01 07:59:28;;;;;;;19.27;7.22;;;0.90;99.90;;;;;;5076221;28;20033;-71
2022/03/01 08:01:56;;;;;;;20.40;6.80;;;1.00;99.90;;;;;;5045534;28;20020;-71
2022/03/01 08:04:23;;;;;;;21.27;8.48;;;1.10;99.90;;;;;;5080956;28;20031;-71
2022/03/01 08:06:51;;;;;;;16.55;7.10;;;1.20;99.90;;;;;;5080387;28;20355;-71
2022/03/01 08:09:19;;;;;;;20.08;7.43;;;1.40;99.90;;;;;;5080295;28;20037;-71
2022/03/01 08:11:46;;;;;;;19.90;6.95;;;1.50;99.90;;;;;;5081076;28;20028;-69
2022/03/01 08:14:13;;;;;;;19.13;6.85;;;1.60;99.90;;;;;;5064026;28;20027;-70
2022/03/01 08:16:41;;;;;;;19.13;7.70;;;1.80;99.90;;;;;;5063155;28;20024;-69
2022/03/01 08:19:09;;;;;;;17.85;7.93;;;2.00;99.90;;;;;;5081489;28;20060;-69
2022/03/01 08:21:36;;;;;;;22.65;7.30;;;2.10;99.90;;;;;;5081031;28;20328;-69
2022/03/01 08:24:04;;;;;;;14.80;6.53;;;2.30;99.90;;;;;;5081146;28;20027;-68
2022/03/01 08:26:32;;;;;;;20.20;7.65;;;2.40;99.90;;;;;;5059582;28;20053;-69
2022/03/01 08:28:59;;;;;;;15.27;7.60;;;2.50;99.90;;;;;;5061217;28;20053;-69
2022/03/01 08:31:27;;;;;;;15.85;7.35;;;2.60;99.90;;;;;;5060198;28;20056;-69
2022/03/01 08:33:54;;;;;;;15.13;6.97;;;2.80;99.90;;;;;;5058744;28;20325;-69
2022/03/01 08:36:21;;;;;;;15.00;6.60;;;2.90;99.90;;;;;;5059786;28;20032;-69
2022/03/01 08:38:48;;;;;;;20.63;7.72;;;3.00;99.90;;;;;;5059605;28;20016;-70
2022/03/01 08:41:15;;;;;;;15.57;7.00;;;3.10;99.90;;;;;;5059896;28;20028;-69
2022/03/01 08:43:43;;;;;;;15.63;6.63;;;3.20;99.90;;;;;;5059810;28;20024;-70
2022/03/01 08:46:13;;;;;;;15.63;7.03;;;3.20;99.90;;;;;;5058649;28;20032;-72
2022/03/01 08:48:41;;;;;;;15.88;6.85;;;3.30;99.90;;;;;;5058336;28;20302;-69
2022/03/01 08:51:08;;;;;;;15.75;6.78;;;3.30;99.90;;;;;;5059640;28;20036;-71
2022/03/01 08:53:36;;;;;;;16.08;6.75;;;3.30;99.90;;;;;;5059909;28;20021;-71
2022/03/01 08:56:04;;;;;;;13.70;6.28;;;3.30;99.90;;;;;;5060281;28;20052;-71
2022/03/01 08:58:31;;;;;;;14.15;7.45;;;3.30;99.90;;;;;;5059565;28;20017;-71
2022/03/01 09:00:58;;;;;;;15.35;7.57;;;3.30;99.90;;;;;;5060513;28;20100;-71
2022/03/01 09:03:26;;;;;;;15.90;7.07;;;3.20;99.90;;;;;;5060122;28;20353;-69
2022/03/01 09:05:54;;;;;;;13.65;6.53;;;3.10;99.90;;;;;;5060301;28;20377;-70
2022/03/01 09:08:22;;;;;;;15.85;6.78;;;3.10;99.90;;;;;;5059886;28;20035;-69
2022/03/01 09:10:50;;;;;;;14.55;6.32;;;3.10;99.90;;;;;;5060017;28;20037;-69
2022/03/01 09:13:18;;;;;;;17.63;7.32;;;3.00;99.90;;;;;;5059315;28;20111;-69
2022/03/01 09:15:45;;;;;;;19.02;6.82;;;3.00;99.90;;;;;;5059011;28;20024;-70
2022/03/01 09:18:13;;;;;;;17.33;6.97;;;3.00;99.90;;;;;;5058956;28;20021;-70
2022/03/01 09:20:40;;;;;;;17.10;6.72;;;3.00;99.90;;;;;;5058970;28;20075;-70
2022/03/01 09:23:08;;;;;;;16.17;7.15;;;3.00;99.90;;;;;;5059151;28;20013;-70
2022/03/01 09:25:36;;;;;;;24.30;8.45;;;3.00;99.90;;;;;;5068959;28;20083;-70
2022/03/01 09:28:03;;;;;;;17.10;7.63;;;3.00;99.90;;;;;;5060962;28;20059;-69
2022/03/01 09:30:31;;;;;;;17.40;7.15;;;3.00;99.90;;;;;;5079371;28;20349;-70
2022/03/01 09:32:58;;;;;;;18.63;7.13;;;3.00;99.90;;;;;;5078990;28;20024;-69
2022/03/01 09:35:26;;;;;;;16.50;7.20;;;3.00;99.90;;;;;;5079403;28;20047;-71
2022/03/01 09:37:54;;;;;;;18.27;7.47;;;3.00;99.90;;;;;;5079579;28;20020;-70
2022/03/01 09:40:21;;;;;;;16.60;6.85;;;3.00;99.90;;;;;;5079994;28;20031;-69
2022/03/01 09:42:52;;;;;;;19.42;6.70;;;3.00;99.90;;;;;;5079418;28;20104;-69
2022/03/01 09:45:20;;;;;;;18.17;7.18;;;3.00;99.90;;;;;;5079936;28;20025;-69
2022/03/01 09:47:48;;;;;;;16.55;6.95;;;3.10;99.90;;;;;;5061635;28;20340;-69
2022/03/01 09:50:16;;;;;;;17.05;6.45;;;3.10;99.90;;;;;;5079860;28;20023;-69
2022/03/01 09:52:43;;;;;;;21.20;6.00;;;3.10;99.90;;;;;;5079301;28;20020;-69
2022/03/01 09:55:11;;;;;;;22.02;7.00;;;3.20;99.90;;;;;;5079625;28;20095;-70
2022/03/01 09:57:39;;;;;;;15.05;6.68;;;3.30;99.90;;;;;;5060547;28;20021;-69
2022/03/01 10:00:08;;;;;;;19.17;7.43;;;3.30;99.90;;;;;;5078140;28;20052;-69
2022/03/01 10:02:41;;;;;;;18.52;6.80;;;3.40;99.90;;;;;;5078373;28;20055;-70
2022/03/01 10:05:10;;;;;;;11.73;5.57;;;3.40;99.90;;;;;;5078386;28;20359;-70
2022/03/01 10:07:42;;;;;;;14.88;6.75;;;3.50;99.90;;;;;;5078103;28;20048;-72
2022/03/01 10:10:19;;;;;;;15.15;6.70;;;3.50;99.90;;;;;;5077879;28;20436;-72
2022/03/01 10:12:55;;;;;;;14.82;6.20;;;3.60;99.90;;;;;;5077860;28;20070;-72
2022/03/01 10:15:31;;;;;;;16.98;6.65;;;3.70;99.90;;;;;;5077907;28;20044;-72
2022/03/01 10:17:59;;;;;;;;;;;3.70;99.90;;;;;;5078387;28;20056;-72
2022/03/01 10:20:26;;;;;;;18.02;6.72;;;3.70;99.60;;;;;;5078812;28;19908;-71
2022/03/01 10:22:55;;;;;;;19.05;5.78;;;3.70;99.70;;;;;;5077987;28;20103;-71
2022/03/01 10:25:24;;;;;;;18.02;7.15;;;3.80;99.30;;;;;;5078363;28;20098;-69
2022/03/01 10:27:52;;;;;;;14.32;6.18;;;3.80;99.00;;;;;;5078449;28;20017;-72
2022/03/01 10:30:29;;;;;;;14.52;5.80;;;3.90;99.20;;;;;;5079058;28;20089;-71
2022/03/01 10:33:14;;;;;;;18.67;7.10;;;3.90;99.00;;;;;;5079017;28;20104;-72
2022/03/01 10:35:43;;;;;;;14.65;6.47;;;4.00;98.90;;;;;;5078724;28;20024;-71
2022/03/01 10:38:12;;;;;;;16.70;7.75;;;4.00;98.20;;;;;;5078120;28;20317;-72
2022/03/01 10:40:40;;;;;;;18.02;7.50;;;4.20;98.60;;;;;;5077836;28;20325;-71
2022/03/01 10:43:09;;;;;;;17.02;7.18;;;4.30;98.40;;;;;;5077336;28;20031;-72
2022/03/01 10:45:38;;;;;;;15.90;6.70;;;4.40;97.80;;;;;;5077325;28;20025;-71
2022/03/01 10:48:07;;;;;;;13.75;6.25;;;4.60;96.90;;;;;;5059432;28;20436;-72
2022/03/01 10:50:35;;;;;;;15.88;6.93;;;4.70;96.30;;;;;;5077224;28;20099;-70
2022/03/01 10:53:03;;;;;;;15.10;7.07;;;4.90;96.50;;;;;;5042968;28;20021;-71
2022/03/01 10:55:33;;;;;;;16.80;5.88;;;5.10;96.30;;;;;;5077584;28;20428;-71
2022/03/01 10:58:10;;;;;;;14.05;6.78;;;5.20;95.20;;;;;;5076965;28;20029;-70
2022/03/01 11:00:39;;;;;;;17.00;7.25;;;5.40;94.70;;;;;;5076934;28;20321;-70
2022/03/01 11:03:07;;;;;;;10.60;5.43;;;5.50;94.00;;;;;;5077754;28;20468;-72
2022/03/01 11:05:36;;;;;;;15.02;7.22;;;5.70;93.10;;;;;;5078398;28;20032;-69
2022/03/01 11:08:08;;;;;;;15.48;6.82;;;5.70;92.20;;;;;;5060033;28;20059;-70
2022/03/01 11:10:38;;;;;;;16.52;6.78;;;5.80;91.80;;;;;;5078299;28;20055;-72
2022/03/01 11:13:08;;;;;;;14.23;6.00;;;5.90;91.70;;;;;;5077724;28;20040;-71
2022/03/01 11:15:56;;;;;;;14.43;6.68;;;6.00;90.90;;;;;;5077922;28;20059;-70
2022/03/01 11:18:47;;;;;;;16.42;6.82;;;6.10;90.80;;;;;;5077622;28;20024;-70
2022/03/01 11:21:15;;;;;;;14.88;6.50;;;6.30;90.70;;;;;;5076998;28;20024;-71
2022/03/01 11:23:43;;;;;;;13.93;5.80;;;6.50;87.70;;;;;;5058868;28;20031;-70
2022/03/01 11:26:13;;;;;;;15.25;6.57;;;6.60;87.70;;;;;;5055324;28;20049;-71
2022/03/01 11:28:51;;;;;;;12.25;6.63;;;6.80;85.60;;;;;;5056824;28;20029;-70
2022/03/01 11:31:24;;;;;;;13.18;6.50;;;6.90;86.70;;;;;;5056643;28;20021;-70
2022/03/01 11:34:15;;;;;;;14.02;6.15;;;7.00;84.80;;;;;;5056524;28;20028;-70
2022/03/01 11:36:55;;;;;;;14.25;6.10;;;7.10;83.30;;;;;;5055696;28;20436;-71
2022/03/01 11:39:30;;;;;;;13.43;6.35;;;7.20;83.60;;;;;;5056640;28;20028;-70
2022/03/01 11:42:05;;;;;;;14.50;6.07;;;7.20;84.40;;;;;;5056569;28;20029;-70
2022/03/01 11:44:39;;;;;;;13.77;5.78;;;7.30;84.40;;;;;;5056221;28;20067;-70
2022/03/01 11:47:09;;;;;;;14.73;6.68;;;7.40;83.60;;;;;;5057157;28;20075;-71
2022/03/01 11:49:40;;;;;;;12.70;6.40;;;7.50;82.50;;;;;;5057206;28;20025;-69
2022/03/01 11:52:25;;;;;;;12.50;5.55;;;7.60;79.60;;;;;;5057843;28;20108;-72
2022/03/01 11:54:57;;;;;;;15.15;5.88;;;7.90;80.20;;;;;;5057303;28;20320;-69
2022/03/01 11:57:29;;;;;;;13.48;5.80;;;8.00;78.40;;;;;;5057427;28;20411;-69
2022/03/01 11:59:58;;;;;;;11.75;5.85;;;8.10;77.00;;;;;;5057065;28;20439;-69
2022/03/01 12:02:27;;;;;;;11.25;5.55;;;8.20;75.90;;;;;;5055959;28;20033;-69
2022/03/01 12:04:55;;;;;;;11.70;5.57;;;8.20;75.30;;;;;;5056105;28;20047;-69
2022/03/01 12:07:30;;;;;;;13.32;5.82;;;8.20;73.20;;;;;;5056663;28;20021;-69
2022/03/01 12:10:00;;;;;;;14.38;5.78;;;8.30;71.80;;;;;;5056269;28;20417;-69
2022/03/01 12:12:38;;;;;;;12.80;5.78;;;8.30;70.50;;;;;;5056810;28;20079;-69
2022/03/01 12:15:07;;;;;;;12.23;5.57;;;8.40;69.90;;;;;;5055979;28;20029;-70
2022/03/01 12:17:46;;;;;;;11.57;6.32;;;8.50;69.90;;;;;;5055431;28;20032;-71
2022/03/01 12:20:16;;;;;;;12.27;5.82;;;8.60;67.00;;;;;;5055931;28;20075;-70
2022/03/01 12:23:03;;;;;;;14.00;6.07;;;8.70;66.50;;;;;;5056268;28;20025;-71
2022/03/01 12:25:37;;;;;;;10.75;4.80;;;8.70;66.60;;;;;;5065269;28;20119;-70
2022/03/01 12:28:09;;;;;;;12.98;5.05;;;8.70;65.50;;;;;;5077366;28;20031;-70
2022/03/01 12:30:43;;;;;;;12.25;5.25;;;8.70;64.80;;;;;;5077099;28;20029;-70
2022/03/01 12:33:18;;;;;;;12.77;5.75;;;8.80;64.60;;;;;;5076878;28;20027;-70
2022/03/01 12:36:03;;;;;;;12.50;5.13;;;8.80;64.40;;;;;;5076842;28;20455;-70
2022/03/01 12:38:32;;;;;;;13.90;5.88;;;8.90;64.60;;;;;;5076731;28;20033;-70
2022/03/01 12:41:15;;;;;;;13.82;5.65;;;8.90;64.80;;;;;;5077530;28;20049;-69
2022/03/01 12:43:42;;;;;;;11.05;4.55;;;9.00;63.80;;;;;;5076793;28;20462;-69
2022/03/01 12:46:10;;;;;;;10.45;5.38;;;9.10;62.90;;;;;;5076309;28;20428;-71
2022/03/01 12:48:44;;;;;;;13.10;6.38;;;9.10;63.50;;;;;;5080021;28;20017;-71
2022/03/01 12:51:12;;;;;;;12.60;6.63;;;9.00;64.20;;;;;;5045403;28;20447;-70
2022/03/01 12:53:51;;;;;;;11.57;5.07;;;9.10;63.60;;;;;;5079497;28;20028;-70